Time;durP1;ratioP1;P1;durP2;ratioP2;P2;SDS_P1;SDS_P2;PMS_P1;PMS_P2;Temp;Humidity;BMP_temperature;BMP_pressure;BME280_temperature;BME280_humidity;BME280_pressure;Samples;Min_cycle;Max_cycle;Signal;HPM_P1;HPM_P2
2023/08/05 00:00:01;;;;;;;3.30;2.90;;;;;;;14.56;100.00;101563.44;999643;29;20050;-88
2023/08/05 00:00:35;;;;;;;4.65;3.15;;;;;;;14.50;100.00;101577.72;1003980;29;20038;-88
2023/08/05 00:01:07;;;;;;;4.60;3.28;;;;;;;14.48;100.00;101569.09;1004130;29;20061;-88
2023/08/05 00:01:39;;;;;;;4.38;2.92;;;;;;;14.45;100.00;101575.72;1002405;29;20102;-88
2023/08/05 00:02:10;;;;;;;4.60;2.90;;;;;;;14.23;100.00;101566.44;994941;29;20411;-88
2023/08/05 00:02:42;;;;;;;6.18;3.20;;;;;;;14.05;100.00;101569.13;998928;29;20378;-88
2023/08/05 00:03:14;;;;;;;4.03;2.92;;;;;;;14.13;100.00;101571.50;1002758;29;20046;-88
2023/08/05 00:03:45;;;;;;;4.38;3.33;;;;;;;14.19;100.00;101573.31;997791;29;20046;-88
2023/08/05 00:04:17;;;;;;;3.50;3.17;;;;;;;14.28;100.00;101568.50;999737;29;20114;-88
2023/08/05 00:04:49;;;;;;;5.25;3.63;;;;;;;14.35;100.00;101570.03;1000383;29;20054;-88
2023/08/05 00:05:21;;;;;;;3.35;3.05;;;;;;;14.29;100.00;101565.59;1002261;29;20061;-89
2023/08/05 00:05:52;;;;;;;3.22;2.95;;;;;;;14.24;100.00;101562.72;1005705;29;20087;-88
2023/08/05 00:06:24;;;;;;;4.22;2.90;;;;;;;14.20;100.00;101570.41;1001285;29;20042;-88
2023/08/05 00:06:56;;;;;;;3.55;2.95;;;;;;;14.18;100.00;101567.13;1003680;29;20046;-88
2023/08/05 00:07:27;;;;;;;3.03;2.80;;;;;;;14.18;100.00;101568.97;1005333;29;20042;-88
2023/08/05 00:07:59;;;;;;;3.30;3.00;;;;;;;14.17;100.00;101562.00;1003213;29;20050;-88
2023/08/05 00:08:30;;;;;;;3.35;3.05;;;;;;;14.08;100.00;101564.16;1012608;29;20055;-88
2023/08/05 00:09:03;;;;;;;4.15;3.08;;;;;;;14.10;100.00;101562.06;1014124;29;20044;-88
2023/08/05 00:09:35;;;;;;;3.22;2.65;;;;;;;14.15;100.00;101564.88;1010787;29;20082;-88
2023/08/05 00:10:06;;;;;;;3.78;3.47;;;;;;;14.24;100.00;101562.72;1002230;29;20042;-88
2023/08/05 00:10:42;;;;;;;3.47;2.88;;;;;;;14.15;100.00;101566.75;1006391;29;20124;-88
2023/08/05 00:11:16;;;;;;;2.92;2.72;;;;;;;14.21;100.00;101564.00;1008052;29;20054;-88
2023/08/05 00:11:48;;;;;;;6.63;4.13;;;;;;;14.19;100.00;101565.25;1011126;29;20048;-88
2023/08/05 00:12:19;;;;;;;4.82;3.42;;;;;;;14.15;100.00;101564.06;1006384;29;20042;-88
2023/08/05 00:12:51;;;;;;;3.78;3.38;;;;;;;14.11;100.00;101568.25;1003477;29;20041;-88
2023/08/05 00:13:22;;;;;;;3.85;3.53;;;;;;;14.00;100.00;101555.59;1006935;29;20045;-89
2023/08/05 00:13:54;;;;;;;7.05;3.85;;;;;;;13.97;100.00;101564.03;1003678;29;20136;-89
2023/08/05 00:14:25;;;;;;;5.10;3.20;;;;;;;14.02;100.00;101565.03;1003028;29;20050;-88
2023/08/05 00:14:57;;;;;;;3.72;3.30;;;;;;;14.01;100.00;101562.59;1005530;29;20045;-88
2023/08/05 00:15:28;;;;;;;3.55;2.63;;;;;;;14.01;100.00;101559.91;1008983;29;20050;-89
2023/08/05 00:16:06;;;;;;;5.75;3.45;;;;;;;14.01;100.00;101563.41;1004884;29;20064;-88
2023/08/05 00:16:38;;;;;;;7.38;3.80;;;;;;;13.96;100.00;101565.06;1008513;29;20052;-88
2023/08/05 00:17:09;;;;;;;4.43;4.03;;;;;;;13.98;100.00;101563.03;1007683;29;20049;-88
2023/08/05 00:17:41;;;;;;;5.95;3.17;;;;;;;13.97;100.00;101561.34;1012157;29;20037;-88
2023/08/05 00:18:13;;;;;;;4.57;3.33;;;;;;;13.70;100.00;101566.97;1000258;29;20418;-89
2023/08/05 00:18:44;;;;;;;4.40;3.25;;;;;;;13.71;100.00;101563.25;1002396;29;20094;-88
2023/08/05 00:19:16;;;;;;;3.22;2.97;;;;;;;13.62;100.00;101569.91;1008661;29;20041;-88
2023/08/05 00:19:47;;;;;;;3.55;2.88;;;;;;;13.69;100.00;101572.53;1007402;29;20048;-88
2023/08/05 00:20:19;;;;;;;3.50;3.20;;;;;;;13.67;100.00;101569.25;1006794;29;20053;-88
2023/08/05 00:20:51;;;;;;;3.67;3.13;;;;;;;13.68;100.00;101569.03;1002304;29;20054;-88
2023/08/05 00:21:23;;;;;;;2.85;2.65;;;;;;;13.75;100.00;101563.66;1005644;29;20053;-88
2023/08/05 00:21:54;;;;;;;3.22;2.92;;;;;;;13.56;100.00;101565.44;1004466;29;20053;-88
2023/08/05 00:22:26;;;;;;;8.23;3.10;;;;;;;13.58;100.00;101563.34;1010178;29;20142;-88
2023/08/05 00:22:58;;;;;;;3.35;3.08;;;;;;;13.60;100.00;101563.97;1002833;29;20053;-88
2023/08/05 00:23:29;;;;;;;3.65;2.72;;;;;;;13.77;100.00;101559.69;1008268;29;20128;-89
2023/08/05 00:24:01;;;;;;;5.97;3.35;;;;;;;13.85;100.00;101553.25;1000838;29;20053;-88
2023/08/05 00:24:32;;;;;;;4.82;3.22;;;;;;;13.76;100.00;101560.75;1003098;29;20086;-88
2023/08/05 00:25:04;;;;;;;3.78;3.40;;;;;;;13.75;100.00;101559.09;1006606;29;20049;-88
2023/08/05 00:25:36;;;;;;;3.20;2.90;;;;;;;13.76;100.00;101555.38;1005473;29;20041;-88
2023/08/05 00:26:07;;;;;;;4.03;3.20;;;;;;;13.56;100.00;101555.53;1003224;29;20053;-88
2023/08/05 00:26:39;;;;;;;3.50;3.20;;;;;;;13.53;100.00;101552.50;1008739;29;20060;-88
2023/08/05 00:27:11;;;;;;;2.65;2.45;;;;;;;13.58;100.00;101547.28;1007459;29;20449;-88
2023/08/05 00:27:42;;;;;;;3.60;3.25;;;;;;;13.60;100.00;101555.94;1006712;29;20053;-88
2023/08/05 00:28:14;;;;;;;5.05;3.55;;;;;;;13.63;100.00;101554.66;1006613;29;20037;-89
2023/08/05 00:28:46;;;;;;;6.35;3.25;;;;;;;13.66;100.00;101554.22;1008928;29;20041;-88
2023/08/05 00:29:17;;;;;;;3.22;2.90;;;;;;;13.74;100.00;101552.13;1003697;29;20045;-88
2023/08/05 00:29:49;;;;;;;3.65;3.35;;;;;;;13.76;100.00;101555.38;1004097;29;20419;-88
2023/08/05 00:30:20;;;;;;;8.52;3.22;;;;;;;13.87;100.00;101551.16;1009308;29;20112;-88
2023/08/05 00:30:52;;;;;;;5.90;2.85;;;;;;;13.91;100.00;101553.16;1009321;29;20057;-88
2023/08/05 00:31:24;;;;;;;4.07;2.80;;;;;;;13.97;100.00;101550.66;1005732;29;20497;-88
2023/08/05 00:31:55;;;;;;;3.50;3.08;;;;;;;14.00;100.00;101550.22;1007390;29;20112;-88
2023/08/05 00:32:27;;;;;;;5.25;3.20;;;;;;;14.00;100.00;101544.88;1007058;29;20116;-88
2023/08/05 00:32:59;;;;;;;4.28;3.33;;;;;;;14.02;100.00;101554.31;1004276;29;20519;-88
2023/08/05 00:33:30;;;;;;;2.55;2.33;;;;;;;13.98;100.00;101552.31;1010530;29;20049;-88
2023/08/05 00:34:02;;;;;;;3.40;3.17;;;;;;;13.88;100.00;101550.94;1005839;29;20045;-88
2023/08/05 00:34:34;;;;;;;4.47;2.53;;;;;;;13.74;100.00;101551.28;1011989;29;20057;-88
2023/08/05 00:35:06;;;;;;;4.97;3.42;;;;;;;13.69;100.00;101551.94;1007943;29;20041;-88
2023/08/05 00:35:38;;;;;;;3.53;3.20;;;;;;;13.68;100.00;101552.97;1007186;29;20045;-88
2023/08/05 00:36:10;;;;;;;3.35;3.05;;;;;;;13.53;100.00;101549.81;1011904;29;20101;-88
2023/08/05 00:36:41;;;;;;;4.00;3.15;;;;;;;13.59;100.00;101555.09;1011149;29;20105;-88
2023/08/05 00:37:13;;;;;;;6.55;3.13;;;;;;;13.47;100.00;101551.50;1005353;29;20114;-88
2023/08/05 00:37:45;;;;;;;10.43;2.85;;;;;;;13.66;100.00;101557.72;1001959;29;20090;-88
2023/08/05 00:38:16;;;;;;;3.65;3.05;;;;;;;13.56;100.00;101552.88;1000605;29;20042;-88
2023/08/05 00:38:48;;;;;;;12.77;3.58;;;;;;;13.50;100.00;101555.59;1003196;29;20046;-88
2023/08/05 00:39:20;;;;;;;4.10;3.03;;;;;;;13.53;100.00;101556.00;1002452;29;20049;-88
2023/08/05 00:39:51;;;;;;;5.60;2.97;;;;;;;13.45;100.00;101547.41;997041;29;20115;-87
2023/08/05 00:40:23;;;;;;;3.55;2.88;;;;;;;13.41;100.00;101547.00;1002773;29;20053;-88
2023/08/05 00:40:54;;;;;;;3.25;2.95;;;;;;;13.39;100.00;101545.59;1008259;29;20042;-88
2023/08/05 00:41:26;;;;;;;4.60;2.88;;;;;;;13.36;100.00;101543.34;1004279;29;20058;-88
2023/08/05 00:41:57;;;;;;;2.88;2.67;;;;;;;13.35;100.00;101542.53;1002211;29;20046;-87
2023/08/05 00:42:29;;;;;;;3.05;2.75;;;;;;;13.28;100.00;101547.94;997730;29;20049;-87
2023/08/05 00:43:00;;;;;;;3.47;3.17;;;;;;;13.27;100.00;101540.94;998941;29;20057;-88
2023/08/05 00:43:32;;;;;;;3.55;3.25;;;;;;;13.08;100.00;101541.84;1006126;29;20061;-88
2023/08/05 00:44:04;;;;;;;3.08;2.45;;;;;;;13.17;100.00;101540.63;1001797;29;20194;-88
2023/08/05 00:44:35;;;;;;;4.85;2.83;;;;;;;13.22;100.00;101543.47;1007801;29;20052;-87
2023/08/05 00:45:08;;;;;;;2.80;2.45;;;;;;;13.22;100.00;101535.44;1008164;29;20045;-88
2023/08/05 00:45:39;;;;;;;3.47;2.88;;;;;;;13.14;100.00;101535.63;1009142;29;20056;-88
2023/08/05 00:46:12;;;;;;;6.18;3.22;;;;;;;13.19;100.00;101537.72;1008875;29;20045;-88
2023/08/05 00:46:43;;;;;;;7.53;2.90;;;;;;;13.19;100.00;101537.72;997922;29;20510;-88
2023/08/05 00:47:18;;;;;;;4.90;2.80;;;;;;;13.13;100.00;101538.53;998094;29;20048;-88
2023/08/05 00:47:52;;;;;;;6.90;3.75;;;;;;;13.08;100.00;101531.16;1005781;29;20045;-88
2023/08/05 00:48:25;;;;;;;4.68;2.78;;;;;;;13.10;100.00;101539.78;1007742;29;20049;-88
2023/08/05 00:48:57;;;;;;;4.63;2.97;;;;;;;13.10;100.00;101531.75;1010515;29;20060;-88
2023/08/05 00:49:30;;;;;;;3.20;3.00;;;;;;;13.05;100.00;101536.13;1007954;29;20073;-87
2023/08/05 00:50:04;;;;;;;3.42;2.67;;;;;;;12.84;100.00;101539.94;1006703;29;20041;-87
2023/08/05 00:50:36;;;;;;;3.03;2.80;;;;;;;12.75;100.00;101535.88;1005939;29;20056;-87
2023/08/05 00:51:07;;;;;;;2.65;2.38;;;;;;;12.82;100.00;101531.31;1004075;29;20042;-87
2023/08/05 00:51:39;;;;;;;2.97;2.38;;;;;;;12.86;100.00;101532.53;1002138;29;20107;-88
2023/08/05 00:52:11;;;;;;;9.68;3.17;;;;;;;12.90;100.00;101534.56;1007323;29;20048;-88
2023/08/05 00:52:43;;;;;;;3.30;3.00;;;;;;;12.82;100.00;101526.78;1006871;29;20062;-88
2023/08/05 00:53:16;;;;;;;5.78;3.05;;;;;;;12.84;100.00;101526.56;1003251;29;20431;-88
2023/08/05 00:53:48;;;;;;;6.40;2.97;;;;;;;12.75;100.00;101533.22;1005347;29;20049;-88
2023/08/05 00:54:21;;;;;;;19.27;3.08;;;;;;;12.58;100.00;101525.66;1005298;29;20071;-88
2023/08/05 00:54:53;;;;;;;7.53;2.40;;;;;;;12.60;100.00;101533.47;1008329;29;20060;-88
2023/08/05 00:55:24;;;;;;;4.35;3.10;;;;;;;12.56;100.00;101526.91;1005093;29;20049;-88
2023/08/05 00:55:56;;;;;;;13.02;2.47;;;;;;;12.49;100.00;101526.94;1008663;29;20040;-88
2023/08/05 00:56:28;;;;;;;4.43;2.03;;;;;;;12.58;100.00;101523.00;1009713;29;20049;-88
2023/08/05 00:57:01;;;;;;;10.70;2.10;;;;;;;12.46;100.00;101534.56;1007580;29;20162;-87
2023/08/05 00:57:34;;;;;;;3.60;2.15;;;;;;;12.51;100.00;101532.06;1005590;29;20049;-88
2023/08/05 00:58:05;;;;;;;6.97;2.53;;;;;;;12.63;100.00;101533.88;1007792;29;20231;-87
2023/08/05 00:58:38;;;;;;;4.70;2.60;;;;;;;12.77;100.00;101533.81;1010985;29;20056;-88
2023/08/05 00:59:10;;;;;;;2.00;1.80;;;;;;;12.85;100.00;101530.88;1006137;29;20050;-87
2023/08/05 00:59:42;;;;;;;3.35;3.05;;;;;;;12.89;100.00;101526.78;1003022;29;20211;-87
2023/08/05 01:00:14;;;;;;;2.67;2.25;;;;;;;12.99;100.00;101529.78;1004620;29;20049;-87
2023/08/05 01:00:47;;;;;;;3.13;2.92;;;;;;;13.03;100.00;101525.66;1007073;29;20045;-88
2023/08/05 01:01:18;;;;;;;7.95;2.88;;;;;;;13.07;100.00;101529.53;1007035;29;20041;-88
2023/08/05 01:01:50;;;;;;;10.02;2.75;;;;;;;13.08;100.00;101531.16;1008913;29;20040;-87
2023/08/05 01:02:21;;;;;;;3.67;2.67;;;;;;;13.15;100.00;101529.28;1010602;29;20116;-88
2023/08/05 01:02:53;;;;;;;2.85;2.60;;;;;;;13.13;100.00;101531.31;1007962;29;20546;-88
2023/08/05 01:03:25;;;;;;;5.45;3.15;;;;;;;13.15;100.00;101531.97;1013034;29;20048;-88
2023/08/05 01:03:56;;;;;;;5.55;3.60;;;;;;;13.07;100.00;101529.53;1006454;29;20056;-87
2023/08/05 01:04:28;;;;;;;4.65;3.03;;;;;;;12.99;100.00;101527.09;1009596;29;20052;-88
2023/08/05 01:04:59;;;;;;;5.22;3.08;;;;;;;12.97;100.00;101524.66;1001655;29;20121;-88
2023/08/05 01:05:31;;;;;;;3.45;3.15;;;;;;;12.88;100.00;101530.47;1009216;29;20143;-88
2023/08/05 01:06:04;;;;;;;6.05;4.03;;;;;;;12.88;100.00;101519.78;1007956;29;20136;-87
2023/08/05 01:06:36;;;;;;;3.05;2.78;;;;;;;13.00;100.00;101523.41;1010388;29;20037;-87
2023/08/05 01:07:08;;;;;;;4.53;2.92;;;;;;;13.04;100.00;101524.59;1007009;29;20504;-88
2023/08/05 01:07:42;;;;;;;3.00;2.70;;;;;;;12.98;100.00;101520.94;998121;29;20057;-87
2023/08/05 01:08:14;;;;;;;5.60;2.75;;;;;;;12.80;100.00;101517.34;1000344;29;20045;-87
2023/08/05 01:08:46;;;;;;;3.15;2.95;;;;;;;12.75;100.00;101522.50;1002649;29;20038;-87
2023/08/05 01:09:18;;;;;;;4.60;3.17;;;;;;;12.73;100.00;101520.06;997915;29;20062;-88
2023/08/05 01:09:49;;;;;;;6.03;2.80;;;;;;;12.61;100.00;101514.56;1002624;29;20053;-88
2023/08/05 01:10:21;;;;;;;8.00;2.90;;;;;;;12.75;100.00;101519.84;1009025;29;20051;-88
2023/08/05 01:10:53;;;;;;;5.80;2.67;;;;;;;12.88;100.00;101520.59;1006020;29;20077;-87
2023/08/05 01:11:24;;;;;;;4.82;2.50;;;;;;;13.07;100.00;101518.00;1005490;29;20042;-88
2023/08/05 01:11:56;;;;;;;4.03;3.08;;;;;;;13.12;100.00;101515.50;1009098;29;20076;-88
2023/08/05 01:12:27;;;;;;;3.25;2.95;;;;;;;13.07;100.00;101513.47;1010358;29;20060;-87
2023/08/05 01:12:59;;;;;;;7.65;3.33;;;;;;;12.87;100.00;101512.78;1006940;29;20553;-87
2023/08/05 01:13:32;;;;;;;3.03;2.47;;;;;;;12.63;100.00;101512.50;1007062;29;20056;-87
2023/08/05 01:14:03;;;;;;;3.10;2.65;;;;;;;12.61;100.00;101517.25;1000591;29;20045;-88
2023/08/05 01:14:35;;;;;;;5.10;2.75;;;;;;;12.57;100.00;101507.16;998504;29;20057;-87
2023/08/05 01:15:07;;;;;;;4.85;3.17;;;;;;;12.53;100.00;101516.66;999300;29;20049;-87
2023/08/05 01:15:39;;;;;;;5.22;3.00;;;;;;;12.53;100.00;101512.13;1004044;29;20054;-88
2023/08/05 01:16:11;;;;;;;3.10;2.88;;;;;;;12.55;100.00;101512.72;1003839;29;20050;-87
2023/08/05 01:16:42;;;;;;;3.35;3.05;;;;;;;12.49;100.00;101521.59;1005101;29;20046;-87
2023/08/05 01:17:14;;;;;;;3.08;2.80;;;;;;;12.42;100.00;101514.66;1008530;29;20049;-88
2023/08/05 01:17:46;;;;;;;3.10;2.80;;;;;;;12.48;100.00;101522.63;1006514;29;20049;-88
2023/08/05 01:18:18;;;;;;;2.90;2.70;;;;;;;12.44;100.00;101521.44;1007149;29;20050;-87
2023/08/05 01:18:51;;;;;;;6.15;3.10;;;;;;;12.44;100.00;101516.09;1008242;29;20041;-87
2023/08/05 01:19:25;;;;;;;3.90;3.40;;;;;;;12.46;100.00;101522.03;1012547;29;20060;-88
2023/08/05 01:19:59;;;;;;;6.05;3.28;;;;;;;12.41;100.00;101523.69;1005518;29;20034;-88
2023/08/05 01:20:37;;;;;;;3.15;2.80;;;;;;;12.29;100.00;101516.31;1003360;29;20068;-88
2023/08/05 01:21:36;;;;;;;3.03;2.65;;;;;;;12.34;100.00;101523.72;1002105;29;20049;-87
2023/08/05 01:22:17;;;;;;;4.10;2.53;;;;;;;12.14;100.00;101520.28;993180;29;20123;-87
2023/08/05 01:22:51;;;;;;;2.88;2.58;;;;;;;12.19;100.00;101515.13;995405;29;20054;-88
2023/08/05 01:23:36;;;;;;;2.38;2.10;;;;;;;12.24;100.00;101518.81;1008683;29;20048;-87
2023/08/05 01:24:22;;;;;;;1.90;1.70;;;;;;;12.08;100.00;101529.97;1004913;29;20204;-88
2023/08/05 01:25:02;;;;;;;2.08;1.98;;;;;;;12.17;100.00;101520.69;1005399;29;20081;-87
2023/08/05 01:25:34;;;;;;;2.38;1.92;;;;;;;12.16;100.00;101527.06;1010635;29;20143;-87
2023/08/05 01:26:07;;;;;;;2.22;1.92;;;;;;;12.34;100.00;101521.06;1010737;29;20056;-88
2023/08/05 01:26:39;;;;;;;4.22;1.70;;;;;;;12.21;100.00;101526.44;1007878;29;20050;-87
2023/08/05 01:27:11;;;;;;;4.95;1.20;;;;;;;12.11;100.00;101529.56;1008617;29;20069;-88
2023/08/05 01:27:43;;;;;;;11.73;3.28;;;;;;;12.16;100.00;101520.91;1010504;29;20040;-87
2023/08/05 01:28:15;;;;;;;2.22;2.03;;;;;;;12.16;100.00;101521.72;1006651;29;20041;-87
2023/08/05 01:28:47;;;;;;;2.72;2.53;;;;;;;12.15;100.00;101525.44;997978;29;20050;-87
2023/08/05 01:29:19;;;;;;;3.58;2.42;;;;;;;12.17;100.00;101528.72;1002879;29;20054;-87
2023/08/05 01:29:50;;;;;;;2.60;2.40;;;;;;;12.13;100.00;101526.66;1006598;29;20102;-87
2023/08/05 01:30:23;;;;;;;4.70;2.28;;;;;;;12.16;100.00;101531.59;1006148;29;20042;-87
2023/08/05 01:30:56;;;;;;;1.88;1.75;;;;;;;12.19;100.00;101525.81;1006754;29;20599;-87
2023/08/05 01:31:28;;;;;;;2.40;2.20;;;;;;;12.28;100.00;101519.22;1010324;29;20105;-88
2023/08/05 01:32:01;;;;;;;4.30;2.80;;;;;;;12.33;100.00;101527.44;1010041;29;20136;-87
2023/08/05 01:32:34;;;;;;;4.43;3.10;;;;;;;12.23;100.00;101519.03;1006269;29;20094;-88
2023/08/05 01:33:07;;;;;;;3.40;2.30;;;;;;;12.20;100.00;101527.47;1010903;29;20136;-88
2023/08/05 01:33:40;;;;;;;2.53;2.33;;;;;;;12.15;100.00;101516.59;1005283;29;20053;-87
2023/08/05 01:34:12;;;;;;;2.72;2.47;;;;;;;12.21;100.00;101518.41;1004666;29;20060;-87
2023/08/05 01:34:52;;;;;;;7.57;2.80;;;;;;;12.16;100.00;101515.56;1009659;29;20047;-87
2023/08/05 01:35:25;;;;;;;3.97;2.50;;;;;;;12.24;100.00;101524.16;1009275;29;20430;-88
2023/08/05 01:35:56;;;;;;;2.20;2.03;;;;;;;12.41;100.00;101518.34;1008222;29;20057;-87
2023/08/05 01:36:30;;;;;;;6.90;2.47;;;;;;;12.26;100.00;101510.59;1017078;29;20052;-87
2023/08/05 01:37:01;;;;;;;4.35;2.15;;;;;;;12.21;100.00;101515.75;1008011;29;20436;-87
2023/08/05 01:37:33;;;;;;;14.93;2.28;;;;;;;12.17;100.00;101510.00;1011201;29;20056;-88
2023/08/05 01:38:04;;;;;;;7.90;2.20;;;;;;;12.17;100.00;101512.69;1009491;29;20066;-87
2023/08/05 01:38:36;;;;;;;2.38;2.00;;;;;;;12.17;100.00;101515.34;1008986;29;20046;-87
2023/08/05 01:39:08;;;;;;;5.50;2.30;;;;;;;12.23;100.00;101517.19;1010694;29;20053;-87
2023/08/05 01:39:40;;;;;;;6.03;2.65;;;;;;;12.24;100.00;101508.13;1009356;29;20071;-87
2023/08/05 01:40:12;;;;;;;12.68;1.92;;;;;;;12.12;100.00;101509.00;1008082;29;20057;-87
2023/08/05 01:40:44;;;;;;;5.20;1.80;;;;;;;12.23;100.00;101508.34;1006942;29;20037;-87
2023/08/05 01:41:16;;;;;;;4.32;2.58;;;;;;;12.23;100.00;101513.69;1006812;29;20567;-87
2023/08/05 01:41:48;;;;;;;7.28;3.08;;;;;;;12.05;100.00;101515.19;1009958;29;20511;-87
2023/08/05 01:42:19;;;;;;;4.63;2.25;;;;;;;12.15;100.00;101505.91;1002774;29;20050;-87
2023/08/05 01:42:51;;;;;;;6.85;2.72;;;;;;;12.06;100.00;101513.34;1002513;29;20046;-87
2023/08/05 01:43:23;;;;;;;4.68;2.58;;;;;;;12.07;100.00;101501.63;1001287;29;20050;-87
2023/08/05 01:43:55;;;;;;;3.10;2.80;;;;;;;11.85;100.00;101511.72;1000590;29;20081;-87
2023/08/05 01:44:27;;;;;;;2.80;2.15;;;;;;;11.94;100.00;101506.97;1001367;29;20053;-87
2023/08/05 01:44:58;;;;;;;3.33;3.03;;;;;;;11.88;100.00;101505.97;999679;29;20038;-87
2023/08/05 01:45:30;;;;;;;3.42;2.58;;;;;;;11.87;100.00;101507.00;1000734;29;20047;-88
2023/08/05 01:46:02;;;;;;;2.70;2.47;;;;;;;11.97;100.00;101502.03;1004161;29;20034;-87
2023/08/05 01:46:33;;;;;;;2.85;2.58;;;;;;;11.96;100.00;101502.25;1002698;29;20057;-87
2023/08/05 01:47:05;;;;;;;4.50;2.70;;;;;;;11.91;100.00;101491.38;1004986;29;20060;-87
2023/08/05 01:47:37;;;;;;;3.10;2.80;;;;;;;11.99;100.00;101502.66;1005763;29;20041;-87
2023/08/05 01:48:09;;;;;;;3.53;2.50;;;;;;;12.21;100.00;101492.53;1000249;29;20049;-87
2023/08/05 01:48:41;;;;;;;2.45;2.28;;;;;;;12.19;100.00;101496.44;999010;29;20145;-88
2023/08/05 01:49:12;;;;;;;4.97;2.83;;;;;;;12.15;100.00;101497.91;999331;29;20552;-87
2023/08/05 01:49:46;;;;;;;3.03;2.60;;;;;;;12.05;100.00;101499.16;1002225;29;20050;-87
2023/08/05 01:50:17;;;;;;;7.05;2.92;;;;;;;12.11;100.00;101502.84;998537;29;20046;-87
2023/08/05 01:50:49;;;;;;;1.80;1.70;;;;;;;12.06;100.00;101490.13;997967;29;20083;-87
2023/08/05 01:51:21;;;;;;;4.22;2.67;;;;;;;12.19;100.00;101491.09;1000152;29;20508;-87
2023/08/05 01:51:52;;;;;;;4.55;3.08;;;;;;;12.25;100.00;101495.59;1003228;29;20049;-87
2023/08/05 01:52:24;;;;;;;3.03;2.72;;;;;;;12.26;100.00;101494.56;1007802;29;20044;-87
2023/08/05 01:52:56;;;;;;;3.22;2.30;;;;;;;12.16;100.00;101495.00;1003254;29;20037;-87
2023/08/05 01:53:27;;;;;;;5.05;2.40;;;;;;;12.11;100.00;101486.81;1006804;29;20113;-87
2023/08/05 01:53:59;;;;;;;3.20;2.42;;;;;;;12.05;100.00;101493.84;1006802;29;20390;-87
2023/08/05 01:54:31;;;;;;;3.53;2.78;;;;;;;12.16;100.00;101499.53;1010201;29;20053;-87
2023/08/05 01:55:02;;;;;;;2.67;2.47;;;;;;;12.14;100.00;101485.56;1006167;29;20057;-87
2023/08/05 01:55:34;;;;;;;5.93;3.00;;;;;;;12.16;100.00;101491.53;1006803;29;20050;-87
2023/08/05 01:56:06;;;;;;;3.40;2.50;;;;;;;12.23;100.00;101489.66;1005297;29;20061;-87
2023/08/05 01:56:37;;;;;;;4.63;3.45;;;;;;;12.36;100.00;101486.94;1005649;29;20416;-87
2023/08/05 01:57:09;;;;;;;3.42;3.13;;;;;;;12.23;100.00;101484.31;1006826;29;20136;-87
2023/08/05 01:57:40;;;;;;;7.65;3.00;;;;;;;12.13;100.00;101478.59;1006072;29;20109;-87
2023/08/05 01:58:12;;;;;;;6.90;3.20;;;;;;;12.07;100.00;101486.44;1005561;29;20060;-87
2023/08/05 01:58:44;;;;;;;2.97;2.67;;;;;;;12.15;100.00;101493.38;1005784;29;20101;-88
2023/08/05 01:59:15;;;;;;;9.90;3.25;;;;;;;12.22;100.00;101488.00;1007317;29;20594;-87
2023/08/05 01:59:47;;;;;;;5.97;2.88;;;;;;;12.11;100.00;101481.47;1002134;29;20101;-87
2023/08/05 02:00:21;;;;;;;3.33;3.03;;;;;;;12.07;100.00;101486.44;1005212;29;20042;-87
2023/08/05 02:00:53;;;;;;;3.25;2.95;;;;;;;12.16;100.00;101488.84;1009557;29;20049;-87
2023/08/05 02:01:46;;;;;;;4.97;3.17;;;;;;;12.06;100.00;101489.31;1005330;29;20049;-87
2023/08/05 02:02:17;;;;;;;2.90;2.60;;;;;;;12.19;100.00;101493.78;1009472;29;20045;-87
2023/08/05 02:02:49;;;;;;;2.83;2.60;;;;;;;12.13;100.00;101491.94;1005611;29;20488;-87
2023/08/05 02:03:21;;;;;;;3.70;2.83;;;;;;;12.28;100.00;101489.81;1002941;29;20338;-88
2023/08/05 02:03:52;;;;;;;7.85;3.08;;;;;;;12.39;100.00;101489.19;1000342;29;20057;-87
2023/08/05 02:04:24;;;;;;;6.47;3.63;;;;;;;12.40;100.00;101490.81;1004023;29;20313;-87
2023/08/05 02:04:56;;;;;;;2.75;2.53;;;;;;;12.34;100.00;101489.81;1004615;29;20310;-88
2023/08/05 02:05:27;;;;;;;3.90;3.45;;;;;;;12.34;100.00;101491.69;1009470;29;20447;-87
2023/08/05 02:05:59;;;;;;;3.30;2.97;;;;;;;12.32;100.00;101491.84;1005766;29;20317;-86
2023/08/05 02:06:31;;;;;;;6.28;2.75;;;;;;;12.34;100.00;101489.81;997805;29;20352;-87
2023/08/05 02:07:02;;;;;;;3.40;3.10;;;;;;;12.31;100.00;101486.72;993504;29;20811;-87
2023/08/05 02:07:34;;;;;;;2.70;2.45;;;;;;;12.20;100.00;101495.41;997510;29;20303;-88
2023/08/05 02:08:06;;;;;;;2.63;2.42;;;;;;;12.15;100.00;101495.22;998537;29;20773;-87
2023/08/05 02:08:37;;;;;;;5.50;3.03;;;;;;;12.10;100.00;101489.72;998704;29;20042;-87
2023/08/05 02:09:09;;;;;;;4.28;3.08;;;;;;;12.12;100.00;101492.97;997452;29;20315;-87
2023/08/05 02:09:41;;;;;;;2.85;2.60;;;;;;;12.04;100.00;101492.16;997259;29;20308;-87
2023/08/05 02:10:12;;;;;;;6.78;3.22;;;;;;;12.15;100.00;101498.72;1001087;29;20046;-87
2023/08/05 02:10:44;;;;;;;4.45;2.65;;;;;;;12.22;100.00;101504.03;998349;29;20043;-87
2023/08/05 02:11:16;;;;;;;3.42;2.90;;;;;;;12.32;100.00;101499.06;1005656;29;20048;-88
2023/08/05 02:11:47;;;;;;;4.55;4.20;;;;;;;12.27;100.00;101496.19;1005214;29;20724;-87
2023/08/05 02:12:19;;;;;;;4.28;3.35;;;;;;;12.16;100.00;101495.00;1001850;29;20439;-87
2023/08/05 02:12:51;;;;;;;3.33;3.03;;;;;;;12.18;100.00;101502.81;1012440;29;20307;-87
2023/08/05 02:13:22;;;;;;;16.70;3.58;;;;;;;12.24;100.00;101496.63;1013206;29;20471;-87
2023/08/05 02:13:54;;;;;;;6.13;3.20;;;;;;;12.37;100.00;101494.75;1009190;29;20132;-87
2023/08/05 02:14:25;;;;;;;3.33;3.03;;;;;;;12.34;100.00;101502.38;1006756;29;20749;-87
2023/08/05 02:14:58;;;;;;;16.45;4.28;;;;;;;12.40;100.00;101506.84;1003932;29;20967;-87
2023/08/05 02:15:29;;;;;;;4.25;2.85;;;;;;;12.48;100.00;101498.59;997129;29;20057;-87
2023/08/05 02:16:03;;;;;;;3.88;3.35;;;;;;;12.47;100.00;101502.28;1001685;29;20441;-87
2023/08/05 02:16:35;;;;;;;3.75;3.25;;;;;;;12.47;100.00;101507.63;1002310;29;20042;-87
2023/08/05 02:17:07;;;;;;;3.33;2.70;;;;;;;12.37;100.00;101505.44;1001213;29;20560;-87
2023/08/05 02:17:38;;;;;;;5.28;3.03;;;;;;;12.34;100.00;101502.38;1004403;29;20045;-87
2023/08/05 02:18:10;;;;;;;4.93;3.60;;;;;;;12.34;100.00;101505.84;1005733;29;20056;-87
2023/08/05 02:18:42;;;;;;;7.32;3.13;;;;;;;12.36;100.00;101510.97;1006729;29;20046;-87
2023/08/05 02:19:13;;;;;;;4.28;3.08;;;;;;;12.34;100.00;101505.84;1007454;29;20049;-88
2023/08/05 02:19:45;;;;;;;5.45;3.10;;;;;;;12.36;100.00;101510.97;1002482;29;20049;-87
2023/08/05 02:20:17;;;;;;;3.17;2.88;;;;;;;12.35;100.00;101509.34;1014240;29;20046;-87
2023/08/05 02:20:51;;;;;;;4.28;3.00;;;;;;;12.25;100.00;101509.78;1006702;29;20050;-87
2023/08/05 02:21:23;;;;;;;3.45;3.15;;;;;;;12.25;100.00;101514.28;1005630;29;20060;-87
2023/08/05 02:21:54;;;;;;;6.80;3.75;;;;;;;12.34;100.00;101518.38;1005532;29;20045;-87
2023/08/05 02:22:26;;;;;;;3.85;3.30;;;;;;;12.34;100.00;101510.38;1006282;29;20423;-87
2023/08/05 02:22:58;;;;;;;4.78;2.67;;;;;;;12.37;100.00;101517.97;1003402;29;20041;-87
2023/08/05 02:23:29;;;;;;;6.03;2.95;;;;;;;12.41;100.00;101521.03;1005635;29;20848;-87
2023/08/05 02:24:01;;;;;;;3.38;2.63;;;;;;;12.43;100.00;101513.63;1001621;29;20050;-87
2023/08/05 02:24:33;;;;;;;5.38;3.35;;;;;;;12.39;100.00;101513.22;1003333;29;20060;-87
2023/08/05 02:25:05;;;;;;;5.55;3.05;;;;;;;12.50;100.00;101509.88;1000877;29;20326;-87
2023/08/05 02:25:36;;;;;;;7.15;3.05;;;;;;;12.57;100.00;101512.50;1008403;29;20041;-87
2023/08/05 02:26:08;;;;;;;3.15;2.80;;;;;;;12.45;100.00;101504.34;1012530;29;20040;-87
2023/08/05 02:26:41;;;;;;;4.43;3.42;;;;;;;12.51;100.00;101502.69;1013868;29;20055;-87
2023/08/05 02:27:14;;;;;;;3.83;3.40;;;;;;;12.71;100.00;101507.94;1009822;29;20076;-87
2023/08/05 02:27:46;;;;;;;5.70;3.83;;;;;;;12.78;100.00;101492.69;1002828;29;20786;-87
2023/08/05 02:28:21;;;;;;;3.78;3.42;;;;;;;12.74;100.00;101499.50;1001174;29;20149;-88